createdAt,value
2018-12-14T00:00:18.516Z,27.85
2018-12-14T00:02:49.160Z,28.70
2018-12-14T00:05:19.806Z,29.92
2018-12-14T00:07:50.410Z,30.35
2018-12-14T00:10:19.208Z,33.48
2018-12-14T00:12:47.927Z,33.83
2018-12-14T00:15:16.676Z,36.13
2018-12-14T00:17:45.402Z,34.90
2018-12-14T00:20:14.124Z,38.85
2018-12-14T00:22:42.846Z,35.20
2018-12-14T00:25:11.595Z,39.08
2018-12-14T00:27:40.316Z,38.67
2018-12-14T00:30:09.269Z,44.00
2018-12-14T00:32:37.982Z,38.58
2018-12-14T00:35:06.726Z,40.98
2018-12-14T00:37:35.418Z,42.08
2018-12-14T00:40:04.674Z,40.83
2018-12-14T00:42:33.353Z,40.70
2018-12-14T00:45:02.191Z,41.05
2018-12-14T00:47:30.921Z,40.00
2018-12-14T00:49:59.592Z,41.13
2018-12-14T00:52:28.314Z,42.88
2018-12-14T00:54:57.058Z,40.80
2018-12-14T00:57:25.719Z,46.18
2018-12-14T01:02:29.479Z,39.83
2018-12-14T01:04:58.383Z,41.08
2018-12-14T01:07:27.118Z,44.30
2018-12-14T01:09:55.843Z,41.13
2018-12-14T01:12:24.566Z,43.87
2018-12-14T01:14:53.234Z,41.18
2018-12-14T01:17:21.977Z,38.13
2018-12-14T01:19:50.763Z,39.40
2018-12-14T01:22:19.532Z,41.05
2018-12-14T01:24:48.217Z,42.53
2018-12-14T01:27:16.954Z,38.45
2018-12-14T01:29:45.789Z,39.10
2018-12-14T01:32:14.580Z,38.35
2018-12-14T01:34:43.311Z,38.20
2018-12-14T01:37:12.071Z,34.63
2018-12-14T01:39:40.799Z,39.80
2018-12-14T01:42:09.550Z,37.67
2018-12-14T01:44:38.299Z,41.57
2018-12-14T01:47:07.022Z,39.33
2018-12-14T01:49:35.758Z,39.27
2018-12-14T01:52:04.483Z,39.63
2018-12-14T01:54:33.426Z,36.90
2018-12-14T01:57:02.153Z,40.65
2018-12-14T01:59:30.834Z,33.30
2018-12-14T02:01:59.607Z,40.38
2018-12-14T02:04:28.263Z,36.42
2018-12-14T02:06:57.003Z,34.23
2018-12-14T02:09:25.671Z,38.63
2018-12-14T02:11:54.339Z,33.75
2018-12-14T02:14:23.081Z,37.58
2018-12-14T02:16:51.857Z,39.10
2018-12-14T02:19:20.667Z,40.83
2018-12-14T02:21:49.411Z,34.90
2018-12-14T02:24:18.191Z,38.88
2018-12-14T02:26:46.988Z,39.30
2018-12-14T02:29:15.753Z,37.67
2018-12-14T02:31:44.486Z,40.35
2018-12-14T02:34:13.218Z,43.68
2018-12-14T02:36:42.988Z,39.78
2018-12-14T02:39:11.692Z,37.63
2018-12-14T02:41:40.485Z,38.90
2018-12-14T02:44:09.188Z,33.90
2018-12-14T02:46:37.907Z,35.95
2018-12-14T02:49:06.618Z,40.17
2018-12-14T02:51:35.329Z,41.23
2018-12-14T02:54:04.047Z,39.23
2018-12-14T02:56:32.768Z,38.20
2018-12-14T02:59:01.550Z,39.27
2018-12-14T03:01:30.268Z,38.33
2018-12-14T03:03:59.028Z,38.58
2018-12-14T03:06:27.795Z,39.42
2018-12-14T03:08:56.482Z,39.17
2018-12-14T03:11:25.243Z,38.45
2018-12-14T03:13:54.003Z,37.98
2018-12-14T03:16:22.731Z,43.65
2018-12-14T03:18:51.427Z,36.60
2018-12-14T03:21:20.187Z,40.38
2018-12-14T03:23:48.916Z,40.65
2018-12-14T03:26:17.866Z,38.15
2018-12-14T03:28:46.596Z,36.10
2018-12-14T03:31:15.361Z,36.68
2018-12-14T03:33:44.101Z,39.07
2018-12-14T03:36:12.892Z,43.63
2018-12-14T03:38:41.622Z,40.52
2018-12-14T03:41:10.367Z,41.58
2018-12-14T03:43:39.019Z,42.78
2018-12-14T03:46:07.794Z,39.05
2018-12-14T03:48:36.542Z,40.45
2018-12-14T03:51:05.306Z,42.53
2018-12-14T03:53:34.090Z,35.80
2018-12-14T03:56:02.814Z,41.40
2018-12-14T03:58:31.539Z,44.80
2018-12-14T04:01:00.239Z,41.15
2018-12-14T04:03:28.995Z,40.12
2018-12-14T04:05:58.797Z,47.05
2018-12-14T04:08:27.569Z,41.30
2018-12-14T04:10:56.267Z,44.75
2018-12-14T04:13:24.995Z,42.93
2018-12-14T04:15:53.714Z,41.35
2018-12-14T04:18:22.436Z,43.25
2018-12-14T04:20:51.155Z,43.68
2018-12-14T04:23:19.875Z,42.20
2018-12-14T04:25:48.603Z,43.20
2018-12-14T04:28:17.351Z,46.65
2018-12-14T04:30:46.065Z,48.83
2018-12-14T04:33:15.652Z,49.85
2018-12-14T04:35:44.470Z,51.10
2018-12-14T04:38:15.186Z,53.77
2018-12-14T04:40:44.833Z,52.54
2018-12-14T04:43:13.560Z,47.73
2018-12-14T04:45:42.353Z,49.53
2018-12-14T04:48:11.233Z,49.90
2018-12-14T04:50:39.990Z,45.50
2018-12-14T04:53:08.738Z,44.55
2018-12-14T04:55:37.552Z,50.47
2018-12-14T04:58:07.214Z,47.57
2018-12-14T05:00:35.979Z,47.93
2018-12-14T05:03:04.742Z,49.17
2018-12-14T05:05:33.499Z,48.30
2018-12-14T05:08:02.304Z,50.35
2018-12-14T05:10:31.278Z,47.20
2018-12-14T05:13:00.047Z,51.90
2018-12-14T05:15:28.723Z,49.70
2018-12-14T05:17:57.474Z,64.72
2018-12-14T05:20:26.235Z,67.10
2018-12-14T05:22:54.988Z,57.20
2018-12-14T05:25:23.671Z,52.60
2018-12-14T05:27:52.415Z,59.30
2018-12-14T05:30:21.403Z,52.27
2018-12-14T05:32:50.152Z,56.70
2018-12-14T05:35:18.891Z,48.30
2018-12-14T05:37:47.698Z,69.15
2018-12-14T05:40:16.399Z,65.72
2018-12-14T05:42:45.122Z,53.42
2018-12-14T05:45:13.902Z,50.70
2018-12-14T05:47:42.716Z,62.78
2018-12-14T05:50:11.504Z,53.15
2018-12-14T05:52:40.263Z,55.50
2018-12-14T05:55:09.090Z,85.37
2018-12-14T05:57:37.850Z,46.63
2018-12-14T06:00:09.603Z,44.83
2018-12-14T06:02:38.375Z,48.85
2018-12-14T06:05:07.370Z,53.23
2018-12-14T06:07:36.138Z,46.65
2018-12-14T06:10:06.246Z,46.15
2018-12-14T06:12:36.061Z,47.15
2018-12-14T06:15:05.470Z,43.10
2018-12-14T06:17:34.155Z,47.08
2018-12-14T06:20:02.976Z,44.93
2018-12-14T06:22:31.723Z,48.73
2018-12-14T06:25:00.471Z,47.08
2018-12-14T06:27:29.243Z,53.27
2018-12-14T06:29:58.022Z,46.53
2018-12-14T06:32:26.719Z,48.73
2018-12-14T06:34:55.471Z,46.70
2018-12-14T06:37:24.434Z,44.17
2018-12-14T06:39:53.170Z,46.55
2018-12-14T06:42:22.178Z,47.23
2018-12-14T06:44:51.045Z,44.50
2018-12-14T06:47:19.907Z,49.85
2018-12-14T06:49:48.670Z,47.13
2018-12-14T06:52:17.384Z,43.63
2018-12-14T06:54:46.134Z,42.73
2018-12-14T06:57:14.956Z,41.70
2018-12-14T06:59:43.702Z,39.63
2018-12-14T07:02:12.469Z,40.90
2018-12-14T07:04:41.210Z,47.30
2018-12-14T07:07:09.951Z,42.70
2018-12-14T07:09:38.698Z,44.38
2018-12-14T07:12:07.458Z,44.43
2018-12-14T07:14:36.143Z,41.37
2018-12-14T07:17:04.967Z,44.35
2018-12-14T07:19:34.501Z,44.73
2018-12-14T07:22:03.342Z,44.70
2018-12-14T07:24:32.068Z,46.85
2018-12-14T07:27:01.463Z,49.45
2018-12-14T07:29:30.170Z,44.20
2018-12-14T07:31:58.943Z,43.50
2018-12-14T07:34:28.594Z,44.00
2018-12-14T07:36:57.380Z,40.27
2018-12-14T07:39:26.119Z,41.92
2018-12-14T07:41:54.901Z,44.03
2018-12-14T07:44:23.655Z,40.48
2018-12-14T07:46:52.439Z,40.20
2018-12-14T07:49:21.202Z,38.37
2018-12-14T07:51:49.995Z,36.63
2018-12-14T07:54:18.770Z,36.20
2018-12-14T07:56:47.574Z,41.73
2018-12-14T07:59:16.335Z,39.70
2018-12-14T08:01:45.110Z,40.57
2018-12-14T08:04:14.048Z,45.13
2018-12-14T08:06:42.819Z,40.58
2018-12-14T08:09:11.587Z,40.17
2018-12-14T08:11:40.327Z,39.43
2018-12-14T08:14:09.075Z,35.23
2018-12-14T08:16:37.928Z,36.65
2018-12-14T08:19:06.623Z,37.27
2018-12-14T08:21:35.354Z,39.23
2018-12-14T08:24:04.243Z,36.33
2018-12-14T08:26:33.018Z,39.57
2018-12-14T08:29:01.771Z,36.77
2018-12-14T08:31:30.491Z,35.83
2018-12-14T08:33:59.280Z,34.77
2018-12-14T08:36:28.106Z,38.30
2018-12-14T08:38:56.895Z,36.15
2018-12-14T08:41:25.640Z,37.37
2018-12-14T08:43:54.350Z,37.05
2018-12-14T08:46:23.178Z,36.15
2018-12-14T08:48:53.002Z,70.97
2018-12-14T08:51:21.807Z,35.75
2018-12-14T08:53:50.591Z,32.97
2018-12-14T08:56:19.367Z,32.03
2018-12-14T08:58:48.118Z,30.97
2018-12-14T09:01:16.907Z,32.93
2018-12-14T09:03:45.626Z,32.47
2018-12-14T09:06:14.478Z,32.38
2018-12-14T09:08:43.326Z,35.77
2018-12-14T09:11:12.111Z,33.70
2018-12-14T09:13:40.848Z,33.80
2018-12-14T09:16:09.662Z,32.88
2018-12-14T09:18:38.369Z,32.45
2018-12-14T09:21:07.111Z,31.57
2018-12-14T09:23:35.923Z,31.20
2018-12-14T09:26:04.743Z,32.40
2018-12-14T09:28:34.263Z,31.20
2018-12-14T09:31:03.091Z,31.07
2018-12-14T09:33:31.849Z,28.20
2018-12-14T09:36:00.647Z,30.30
2018-12-14T09:38:29.387Z,27.27
2018-12-14T09:40:58.142Z,31.37
2018-12-14T09:43:28.019Z,27.75
2018-12-14T09:45:56.838Z,29.87
2018-12-14T09:48:25.604Z,28.73
2018-12-14T09:50:54.353Z,26.55
2018-12-14T09:53:23.176Z,26.97
2018-12-14T09:55:51.935Z,25.43
2018-12-14T09:58:20.685Z,24.77
2018-12-14T10:00:49.447Z,26.40
2018-12-14T10:03:18.195Z,27.70
2018-12-14T10:05:46.952Z,26.52
2018-12-14T10:08:15.974Z,24.70
2018-12-14T10:10:45.087Z,25.32
2018-12-14T10:13:14.044Z,27.73
2018-12-14T10:15:42.791Z,26.52
2018-12-14T10:18:11.591Z,28.17
2018-12-14T10:20:40.263Z,27.40
2018-12-14T10:23:09.020Z,25.20
2018-12-14T10:25:38.833Z,23.03
2018-12-14T10:28:07.586Z,25.00
2018-12-14T10:30:36.261Z,24.32
2018-12-14T10:33:06.014Z,24.97
2018-12-14T10:35:35.779Z,26.10
2018-12-14T10:38:04.514Z,26.12
2018-12-14T10:40:33.295Z,23.87
2018-12-14T10:43:02.070Z,24.43
2018-12-14T10:45:30.930Z,23.07
2018-12-14T10:47:59.723Z,22.75
2018-12-14T10:50:35.561Z,23.10
2018-12-14T10:53:01.207Z,24.20
2018-12-14T10:55:29.950Z,23.05
2018-12-14T10:57:58.975Z,25.52
2018-12-14T11:00:33.003Z,28.42
2018-12-14T11:03:01.766Z,25.00
2018-12-14T11:05:30.575Z,27.05
2018-12-14T11:07:59.339Z,24.35
2018-12-14T11:10:28.160Z,23.60
2018-12-14T11:12:57.299Z,25.10
2018-12-14T11:15:25.978Z,24.80
2018-12-14T11:17:54.691Z,28.77
2018-12-14T11:20:23.508Z,30.60
2018-12-14T11:22:52.254Z,30.00
2018-12-14T11:25:21.024Z,26.40
2018-12-14T11:27:49.764Z,24.72
2018-12-14T11:30:18.514Z,24.67
2018-12-14T11:32:47.266Z,26.60
2018-12-14T11:35:16.010Z,25.72
2018-12-14T11:37:44.706Z,24.10
2018-12-14T11:40:13.456Z,26.00
2018-12-14T11:42:42.206Z,24.55
2018-12-14T11:45:10.954Z,24.10
2018-12-14T11:47:39.694Z,25.23
2018-12-14T11:50:10.402Z,24.23
2018-12-14T11:52:39.151Z,22.85
2018-12-14T11:55:09.563Z,22.17
2018-12-14T11:57:38.362Z,21.57
2018-12-14T12:00:11.434Z,21.37
2018-12-14T12:02:43.211Z,22.95
2018-12-14T12:05:11.998Z,22.40
2018-12-14T12:07:41.763Z,22.35
2018-12-14T12:10:11.024Z,21.50
2018-12-14T12:12:40.706Z,19.73
2018-12-14T12:15:09.741Z,22.67
2018-12-14T12:17:39.567Z,21.43
2018-12-14T12:20:08.825Z,20.97
2018-12-14T12:22:38.566Z,20.37
2018-12-14T12:25:07.354Z,20.95
2018-12-14T12:27:36.138Z,21.00
2018-12-14T12:30:05.683Z,22.15
2018-12-14T12:32:34.417Z,21.97
2018-12-14T12:35:03.399Z,22.40
2018-12-14T12:37:32.143Z,21.70
2018-12-14T12:40:00.871Z,22.60
2018-12-14T12:42:29.642Z,20.73
2018-12-14T12:44:58.418Z,20.70
2018-12-14T12:47:27.153Z,23.63
2018-12-14T12:49:55.918Z,24.80
2018-12-14T12:52:24.790Z,23.17
2018-12-14T12:54:53.605Z,22.60
2018-12-14T12:57:22.350Z,21.87
2018-12-14T12:59:52.094Z,20.10
2018-12-14T13:02:20.863Z,21.50
2018-12-14T13:04:49.887Z,21.90
2018-12-14T13:07:18.619Z,23.70
2018-12-14T13:09:47.283Z,22.57
2018-12-14T13:12:16.014Z,19.37
2018-12-14T13:14:44.711Z,23.85
2018-12-14T13:17:13.466Z,25.43
2018-12-14T13:19:42.220Z,21.00
2018-12-14T13:22:10.964Z,19.23
2018-12-14T13:24:39.653Z,18.35
2018-12-14T13:27:08.391Z,20.37
2018-12-14T13:29:37.195Z,18.17
2018-12-14T13:32:05.940Z,20.30
2018-12-14T13:34:34.716Z,23.17
2018-12-14T13:37:03.491Z,22.10
2018-12-14T13:39:32.203Z,21.30
2018-12-14T13:42:01.055Z,22.55
2018-12-14T13:44:30.103Z,21.70
2018-12-14T13:46:58.818Z,24.50
2018-12-14T13:49:27.521Z,26.23
2018-12-14T13:51:56.303Z,25.30
2018-12-14T13:54:25.060Z,23.00
2018-12-14T13:56:53.752Z,25.82
2018-12-14T13:59:26.658Z,24.01
2018-12-14T14:01:55.400Z,26.30
2018-12-14T14:04:24.083Z,26.77
2018-12-14T14:06:52.801Z,26.90
2018-12-14T14:09:22.119Z,23.05
2018-12-14T14:11:50.875Z,28.02
2018-12-14T14:14:19.599Z,26.13
2018-12-14T14:16:49.282Z,28.23
2018-12-14T14:19:17.970Z,29.50
2018-12-14T14:21:46.767Z,25.20
2018-12-14T14:24:15.522Z,26.57
2018-12-14T14:26:44.623Z,30.23
2018-12-14T14:29:13.463Z,29.52
2018-12-14T14:31:42.198Z,27.93
2018-12-14T14:34:10.915Z,26.93
2018-12-14T14:36:40.070Z,30.90
2018-12-14T14:39:08.912Z,29.87
2018-12-14T14:41:37.603Z,28.32
2018-12-14T14:44:06.378Z,25.70
2018-12-14T14:46:35.060Z,25.77
2018-12-14T14:49:03.805Z,29.13
2018-12-14T14:51:32.589Z,30.87
2018-12-14T14:54:01.343Z,35.08
2018-12-14T14:56:30.107Z,29.67
2018-12-14T14:58:58.927Z,27.17
2018-12-14T15:01:27.766Z,26.15
2018-12-14T15:03:56.458Z,27.77
2018-12-14T15:06:25.327Z,32.48
2018-12-14T15:08:54.406Z,30.43
2018-12-14T15:11:23.171Z,31.17
2018-12-14T15:13:51.947Z,37.67
2018-12-14T15:16:20.699Z,33.63
2018-12-14T15:18:49.463Z,36.83
2018-12-14T15:21:18.186Z,39.00
2018-12-14T15:23:46.883Z,40.15
2018-12-14T15:26:15.809Z,31.37
2018-12-14T15:28:44.556Z,35.87
2018-12-14T15:31:13.628Z,34.92
2018-12-14T15:33:42.475Z,29.63
2018-12-14T15:36:11.231Z,32.63
2018-12-14T15:38:39.927Z,39.92
2018-12-14T15:41:08.703Z,34.27
2018-12-14T15:43:37.445Z,31.50
2018-12-14T15:46:06.336Z,31.23
2018-12-14T15:48:35.291Z,34.65
2018-12-14T15:51:04.272Z,31.48
2018-12-14T15:53:33.101Z,34.60
2018-12-14T15:56:01.814Z,32.90
2018-12-14T15:58:30.606Z,32.40
2018-12-14T16:00:59.339Z,36.87
2018-12-14T16:03:28.090Z,32.93
2018-12-14T16:05:56.847Z,44.27
2018-12-14T16:08:25.606Z,37.65
2018-12-14T16:10:54.351Z,32.77
2018-12-14T16:13:23.027Z,38.60
2018-12-14T16:15:52.487Z,36.08
2018-12-14T16:18:21.251Z,36.75
2018-12-14T16:20:49.972Z,34.93
2018-12-14T16:23:18.763Z,37.67
2018-12-14T16:25:47.575Z,50.20
2018-12-14T16:28:16.341Z,39.90
2018-12-14T16:30:46.098Z,35.37
2018-12-14T16:33:14.939Z,39.13
2018-12-14T16:35:43.627Z,37.67
2018-12-14T16:38:12.378Z,32.75
2018-12-14T16:40:41.134Z,36.37
2018-12-14T16:43:09.950Z,36.50
2018-12-14T16:45:38.704Z,34.05
2018-12-14T16:48:07.458Z,35.33
2018-12-14T16:50:36.185Z,30.67
2018-12-14T16:53:04.910Z,36.20
2018-12-14T16:55:33.690Z,39.42
2018-12-14T16:58:02.382Z,35.25
2018-12-14T17:00:31.175Z,55.05
2018-12-14T17:02:59.903Z,87.10
2018-12-14T17:05:28.674Z,58.83
2018-12-14T17:07:57.430Z,76.00
2018-12-14T17:10:26.182Z,53.30
2018-12-14T17:12:55.017Z,54.87
2018-12-14T17:15:23.723Z,52.10
2018-12-14T17:17:52.399Z,46.63
2018-12-14T17:20:21.091Z,52.67
2018-12-14T17:22:50.484Z,58.73
2018-12-14T17:25:19.266Z,66.23
2018-12-14T17:27:48.019Z,60.60
2018-12-14T17:30:16.755Z,74.15
2018-12-14T17:32:45.499Z,44.37
2018-12-14T17:35:14.208Z,39.50
2018-12-14T17:37:42.954Z,40.85
2018-12-14T17:40:11.694Z,40.40
2018-12-14T17:42:42.375Z,35.30
2018-12-14T17:45:11.119Z,47.10
2018-12-14T17:47:39.883Z,39.95
2018-12-14T17:50:08.638Z,41.40
2018-12-14T17:52:37.398Z,39.57
2018-12-14T17:55:06.169Z,36.40
2018-12-14T17:57:34.978Z,32.10
2018-12-14T18:00:04.087Z,35.30
2018-12-14T18:02:32.855Z,37.97
2018-12-14T18:05:01.642Z,32.70
2018-12-14T18:07:30.455Z,34.05
2018-12-14T18:09:59.183Z,33.30
2018-12-14T18:12:27.950Z,36.80
2018-12-14T18:14:56.697Z,33.33
2018-12-14T18:17:25.464Z,36.08
2018-12-14T18:19:54.230Z,38.73
2018-12-14T18:22:23.335Z,40.57
2018-12-14T18:24:52.135Z,40.30
2018-12-14T18:27:20.935Z,38.35
2018-12-14T18:29:49.663Z,39.27
2018-12-14T18:32:18.339Z,38.20
2018-12-14T18:34:47.066Z,37.00
2018-12-14T18:37:15.866Z,37.25
2018-12-14T18:39:44.614Z,37.20
2018-12-14T18:42:13.342Z,39.43
2018-12-14T18:44:42.094Z,40.15
2018-12-14T18:47:10.782Z,39.48
2018-12-14T18:49:39.522Z,33.63
2018-12-14T18:52:08.405Z,36.07
2018-12-14T18:54:37.127Z,33.65
2018-12-14T18:57:05.867Z,36.70
2018-12-14T18:59:34.667Z,34.87
2018-12-14T19:02:03.481Z,30.75
2018-12-14T19:04:32.311Z,34.70
2018-12-14T19:07:01.090Z,31.68
2018-12-14T19:09:29.974Z,30.27
2018-12-14T19:11:58.700Z,29.57
2018-12-14T19:14:27.447Z,30.45
2018-12-14T19:16:56.300Z,32.57
2018-12-14T19:19:25.045Z,33.03
2018-12-14T19:21:53.735Z,31.25
2018-12-14T19:24:22.839Z,33.88
2018-12-14T19:26:51.522Z,35.07
2018-12-14T19:29:20.216Z,29.90
2018-12-14T19:31:48.958Z,39.05
2018-12-14T19:34:17.722Z,48.20
2018-12-14T19:36:46.622Z,42.55
2018-12-14T19:39:15.671Z,48.67
2018-12-14T19:41:44.986Z,46.83
2018-12-14T19:44:13.667Z,39.73
2018-12-14T19:46:42.399Z,42.43
2018-12-14T19:49:11.122Z,38.48
2018-12-14T19:51:39.859Z,47.33
2018-12-14T19:54:08.570Z,44.80
2018-12-14T19:56:37.215Z,44.98
2018-12-14T19:59:06.010Z,40.83
2018-12-14T20:01:34.710Z,32.27
2018-12-14T20:04:04.322Z,34.03
2018-12-14T20:06:33.049Z,32.15
2018-12-14T20:09:01.747Z,32.65
2018-12-14T20:11:32.407Z,31.85
2018-12-14T20:14:01.170Z,32.80
2018-12-14T20:16:29.906Z,30.80
2018-12-14T20:18:58.623Z,35.08
2018-12-14T20:21:27.326Z,34.13
2018-12-14T20:23:57.095Z,34.13
2018-12-14T20:26:25.827Z,37.33
2018-12-14T20:28:54.555Z,35.37
2018-12-14T20:31:23.222Z,36.60
2018-12-14T20:33:52.038Z,35.87
2018-12-14T20:36:20.746Z,39.80
2018-12-14T20:38:49.597Z,40.12
2018-12-14T20:41:18.450Z,36.10
2018-12-14T20:43:47.156Z,40.27
2018-12-14T20:46:19.283Z,35.38
2018-12-14T20:48:47.229Z,37.20
2018-12-14T20:51:15.975Z,37.80
2018-12-14T20:53:44.702Z,37.80
2018-12-14T20:56:13.438Z,31.70
2018-12-14T20:58:42.168Z,34.73
2018-12-14T21:01:10.906Z,36.83
2018-12-14T21:03:39.615Z,35.10
2018-12-14T21:06:08.382Z,33.97
2018-12-14T21:08:37.103Z,32.20
2018-12-14T21:11:05.917Z,35.57
2018-12-14T21:13:34.688Z,35.75
2018-12-14T21:16:03.463Z,35.73
2018-12-14T21:18:32.206Z,38.33
2018-12-14T21:21:00.938Z,38.58
2018-12-14T21:23:29.739Z,34.15
2018-12-14T21:25:58.464Z,38.33
2018-12-14T21:28:27.230Z,40.58
2018-12-14T21:30:56.247Z,35.75
2018-12-14T21:33:25.012Z,35.30
2018-12-14T21:35:53.714Z,34.57
2018-12-14T21:38:22.393Z,36.37
2018-12-14T21:40:51.130Z,35.35
2018-12-14T21:43:19.894Z,36.20
2018-12-14T21:45:48.702Z,36.60
2018-12-14T21:48:17.438Z,35.52
2018-12-14T21:50:46.122Z,38.80
2018-12-14T21:53:15.480Z,40.20
2018-12-14T21:55:44.216Z,32.97
2018-12-14T21:58:13.137Z,36.50
2018-12-14T22:00:41.859Z,41.70
2018-12-14T22:03:10.606Z,36.17
2018-12-14T22:05:40.377Z,36.30
2018-12-14T22:08:09.106Z,35.43
2018-12-14T22:10:37.866Z,42.37
2018-12-14T22:13:06.599Z,40.83
2018-12-14T22:15:35.341Z,39.30
2018-12-14T22:18:04.184Z,41.63
2018-12-14T22:20:32.891Z,39.33
2018-12-14T22:23:01.595Z,37.10
2018-12-14T22:25:30.319Z,37.58
2018-12-14T22:27:59.055Z,40.33
2018-12-14T22:30:27.778Z,40.15
2018-12-14T22:32:56.438Z,43.05
2018-12-14T22:35:25.197Z,45.20
2018-12-14T22:37:54.334Z,41.15
2018-12-14T22:40:23.122Z,39.67
2018-12-14T22:42:51.847Z,41.18
2018-12-14T22:45:20.494Z,39.73
2018-12-14T22:47:49.271Z,41.10
2018-12-14T22:50:18.001Z,43.47
2018-12-14T22:52:46.665Z,41.73
2018-12-14T22:55:15.374Z,39.87
2018-12-14T22:57:44.123Z,45.63
2018-12-14T23:00:18.798Z,41.80
2018-12-14T23:02:49.418Z,42.88
2018-12-14T23:05:18.088Z,45.40
2018-12-14T23:07:46.808Z,41.10
2018-12-14T23:10:15.550Z,47.30
2018-12-14T23:12:44.241Z,45.27
2018-12-14T23:15:12.974Z,44.67
2018-12-14T23:17:41.743Z,46.77
2018-12-14T23:20:10.455Z,44.20
2018-12-14T23:22:39.171Z,45.13
2018-12-14T23:25:07.931Z,44.35
2018-12-14T23:27:36.679Z,50.88
2018-12-14T23:30:07.545Z,49.13
2018-12-14T23:32:36.295Z,51.00
2018-12-14T23:35:05.702Z,49.20
2018-12-14T23:37:34.548Z,53.13
2018-12-14T23:40:03.355Z,50.20
2018-12-14T23:42:32.078Z,52.25
2018-12-14T23:45:00.862Z,50.73
2018-12-14T23:47:29.600Z,52.58
2018-12-14T23:49:58.331Z,50.38
2018-12-14T23:52:27.054Z,54.05
2018-12-14T23:54:55.730Z,47.23
2018-12-14T23:57:24.382Z,48.92
2018-12-14T23:59:53.067Z,55.12
